Time;durP1;ratioP1;P1;durP2;ratioP2;P2;SDS_P1;SDS_P2;PMS_P1;PMS_P2;Temp;Humidity;BMP_temperature;BMP_pressure;BME280_temperature;BME280_humidity;BME280_pressure;Samples;Min_cycle;Max_cycle;Signal;HPM_P1;HPM_P2
2023/01/02 00:01:43;;;;;;;1999.90;999.90;;;;;;;;;;5082219;28;20069;-57
2023/01/02 00:04:09;;;;;;;1999.90;999.90;;;;;;;;;;5082120;28;20490;-58
2023/01/02 00:06:35;;;;;;;1999.90;999.90;;;;;;;;;;5077159;28;20171;-58
2023/01/02 00:09:00;;;;;;;1999.90;999.90;;;;;;;;;;5082655;28;20099;-56
2023/01/02 00:11:26;;;;;;;1999.90;999.90;;;;;;;;;;5066460;28;20096;-57
2023/01/02 00:13:51;;;;;;;1999.90;999.90;;;;;;;;;;5083864;28;20073;-56
2023/01/02 00:16:16;;;;;;;1999.90;999.90;;;;;;;;;;5071103;28;20444;-56
2023/01/02 00:18:42;;;;;;;1999.90;999.90;;;;;;;;;;5057571;28;21214;-56
2023/01/02 00:21:07;;;;;;;1999.90;999.90;;;;;;;;;;5078617;28;20069;-55
2023/01/02 00:23:33;;;;;;;1999.90;999.90;;;;;;;;;;5081754;28;20103;-56
2023/01/02 00:25:58;;;;;;;1999.90;999.90;;;;;;;;;;5090482;28;20083;-57
2023/01/02 00:28:23;;;;;;;1999.90;999.90;;;;;;;;;;5088890;28;20164;-56
2023/01/02 00:30:49;;;;;;;1999.90;999.90;;;;;;;;;;5083661;28;20540;-56
2023/01/02 00:33:14;;;;;;;1999.90;999.90;;;;;;;;;;5083173;28;20092;-57
2023/01/02 00:35:40;;;;;;;1999.90;999.90;;;;;;;;;;5079412;28;20539;-56
2023/01/02 00:38:05;;;;;;;1999.90;999.90;;;;;;;;;;5081709;28;20636;-56
2023/01/02 00:40:30;;;;;;;1999.90;999.90;;;;;;;;;;5085578;28;20061;-58
2023/01/02 00:42:56;;;;;;;1999.90;999.90;;;;;;;;;;5081683;28;20100;-52
2023/01/02 00:45:21;;;;;;;1999.90;999.90;;;;;;;;;;5082572;28;20073;-52
2023/01/02 00:47:46;;;;;;;1999.90;999.90;;;;;;;;;;5090018;28;20594;-50
2023/01/02 00:50:12;;;;;;;1999.90;999.90;;;;;;;;;;5085935;28;20133;-48
2023/01/02 00:52:37;;;;;;;1999.90;999.90;;;;;;;;;;5080596;28;20093;-51
2023/01/02 00:55:02;;;;;;;1999.90;999.90;;;;;;;;;;5084809;28;20616;-53
2023/01/02 00:57:28;;;;;;;1999.90;999.90;;;;;;;;;;5089939;28;20096;-48
2023/01/02 00:59:53;;;;;;;1999.90;999.90;;;;;;;;;;5077415;28;20077;-49
2023/01/02 01:02:19;;;;;;;1999.90;999.90;;;;;;;;;;5085259;28;20085;-52
2023/01/02 01:04:44;;;;;;;1999.90;999.90;;;;;;;;;;5085871;28;20168;-49
2023/01/02 01:07:09;;;;;;;1999.90;999.90;;;;;;;;;;5088070;28;20084;-50
2023/01/02 01:09:34;;;;;;;1999.90;999.90;;;;;;;;;;5087938;28;20072;-53
2023/01/02 01:12:00;;;;;;;1999.90;999.90;;;;;;;;;;5085716;28;20120;-49
2023/01/02 01:14:25;;;;;;;1999.90;999.90;;;;;;;;;;5082359;28;20085;-51
2023/01/02 01:16:50;;;;;;;1999.90;999.90;;;;;;;;;;5081334;28;20076;-53
2023/01/02 01:19:16;;;;;;;1999.90;999.90;;;;;;;;;;5076165;28;20144;-49
2023/01/02 01:21:41;;;;;;;1999.90;999.90;;;;;;;;;;5073905;28;20077;-53
2023/01/02 01:24:06;;;;;;;1999.90;999.90;;;;;;;;;;5084050;28;20065;-53
2023/01/02 01:26:32;;;;;;;1999.90;999.90;;;;;;;;;;5055328;28;20149;-48
2023/01/02 01:28:57;;;;;;;1999.90;999.90;;;;;;;;;;5079662;28;20069;-50
2023/01/02 01:31:23;;;;;;;1999.90;999.90;;;;;;;;;;5073047;28;20432;-48
2023/01/02 01:33:49;;;;;;;1999.90;999.90;;;;;;;;;;5073466;28;20076;-50
2023/01/02 01:36:15;;;;;;;1999.90;999.90;;;;;;;;;;5072877;28;20557;-51
2023/01/02 01:38:41;;;;;;;1999.90;999.90;;;;;;;;;;5073282;28;20080;-53
2023/01/02 01:41:07;;;;;;;1999.90;999.90;;;;;;;;;;5076776;28;20140;-51
2023/01/02 01:43:35;;;;;;;1999.90;999.90;;;;;;;;;;5093568;28;20110;-50
2023/01/02 01:46:00;;;;;;;1999.90;999.90;;;;;;;;;;5091586;28;20110;-49
2023/01/02 01:48:25;;;;;;;1999.90;999.90;;;;;;;;;;5093237;28;20069;-52
2023/01/02 01:50:51;;;;;;;1999.90;999.90;;;;;;;;;;5093125;28;20072;-49
2023/01/02 01:53:18;;;;;;;1999.90;999.90;;;;;;;;;;5092839;28;20090;-48
2023/01/02 01:55:48;;;;;;;1999.90;999.90;;;;;;;;;;5092328;28;20670;-48
2023/01/02 01:58:16;;;;;;;1999.90;999.90;;;;;;;;;;5092945;28;20467;-51
2023/01/02 02:00:42;;;;;;;1999.90;999.90;;;;;;;;;;5092861;28;20131;-48
2023/01/02 02:03:09;;;;;;;1999.90;999.90;;;;;;;;;;5091954;28;20100;-49
2023/01/02 02:05:35;;;;;;;1999.90;999.90;;;;;;;;;;5092924;28;20556;-48
2023/01/02 02:08:00;;;;;;;1999.90;999.90;;;;;;;;;;5092416;28;20110;-52
2023/01/02 02:10:26;;;;;;;1999.90;999.90;;;;;;;;;;5092716;28;20537;-49
2023/01/02 02:12:51;;;;;;;1999.90;999.90;;;;;;;;;;5092353;28;20069;-48
2023/01/02 02:15:18;;;;;;;1999.90;999.90;;;;;;;;;;5092302;28;20135;-48
2023/01/02 02:18:08;;;;;;;1999.90;999.90;;;;;;;;;;5092506;28;20080;-48
2023/01/02 02:20:33;;;;;;;;;;;;;;;;;;5092814;28;20094;-49
2023/01/02 02:23:17;;;;;;;1999.90;999.90;;;;;;;;;;5092388;28;19957;-49
2023/01/02 02:26:04;;;;;;;1999.90;999.90;;;;;;;;;;5092162;28;20784;-48
2023/01/02 02:28:38;;;;;;;1999.90;999.90;;;;;;;;;;5092113;28;20065;-51
2023/01/02 02:31:26;;;;;;;1999.90;999.90;;;;;;;;;;5091973;28;20404;-49
2023/01/02 02:33:58;;;;;;;1999.90;999.90;;;;;;;;;;5083662;28;20093;-49
2023/01/02 02:36:32;;;;;;;1999.90;999.90;;;;;;;;;;5091879;28;20104;-48
2023/01/02 02:39:15;;;;;;;1999.90;999.90;;;;;;;;;;5091098;28;20074;-49
2023/01/02 02:41:49;;;;;;;1999.90;999.90;;;;;;;;;;5091800;28;20110;-49
2023/01/02 02:44:21;;;;;;;1999.90;999.90;;;;;;;;;;5091863;28;20067;-48
2023/01/02 02:46:57;;;;;;;1999.90;999.90;;;;;;;;;;5091821;28;20084;-49
2023/01/02 02:49:41;;;;;;;1999.90;999.90;;;;;;;;;;5091838;28;20076;-50
2023/01/02 02:52:12;;;;;;;1999.90;999.90;;;;;;;;;;5091819;28;20074;-51
2023/01/02 02:54:53;;;;;;;1999.90;999.90;;;;;;;;;;5091502;28;20088;-48
2023/01/02 02:57:18;;;;;;;1999.90;999.90;;;;;;;;;;5091829;28;20077;-48
2023/01/02 02:59:45;;;;;;;1999.90;999.90;;;;;;;;;;5091212;28;20067;-51
2023/01/02 03:02:13;;;;;;;1999.90;999.90;;;;;;;;;;5090631;28;20751;-50
2023/01/02 03:04:39;;;;;;;1999.90;999.90;;;;;;;;;;5088480;28;20114;-47
2023/01/02 03:07:13;;;;;;;1999.90;999.90;;;;;;;;;;5089517;28;20092;-50
2023/01/02 03:09:57;;;;;;;1999.90;999.90;;;;;;;;;;5091033;28;20075;-47
2023/01/02 03:12:34;;;;;;;1999.90;999.90;;;;;;;;;;5091386;28;20432;-50
2023/01/02 03:15:18;;;;;;;1999.90;999.90;;;;;;;;;;5091426;28;20092;-49
2023/01/02 03:17:43;;;;;;;1999.90;999.90;;;;;;;;;;5091229;28;20567;-48
2023/01/02 03:20:11;;;;;;;1999.90;999.90;;;;;;;;;;5090945;28;20068;-51
2023/01/02 03:22:38;;;;;;;1999.90;999.90;;;;;;;;;;5091542;28;20465;-48
2023/01/02 03:25:03;;;;;;;1999.90;999.90;;;;;;;;;;5091035;28;20083;-48
2023/01/02 03:27:32;;;;;;;1999.90;999.90;;;;;;;;;;5090090;28;20088;-51
2023/01/02 03:30:02;;;;;;;1999.90;999.90;;;;;;;;;;5091182;28;20080;-52
2023/01/02 03:32:32;;;;;;;1999.90;999.90;;;;;;;;;;5091195;28;20535;-52
2023/01/02 03:35:02;;;;;;;1999.90;999.90;;;;;;;;;;5090943;28;20103;-51
2023/01/02 03:37:32;;;;;;;1999.90;999.90;;;;;;;;;;5090991;28;20085;-50
2023/01/02 03:40:00;;;;;;;1999.90;999.90;;;;;;;;;;5090921;28;20063;-50
2023/01/02 03:42:30;;;;;;;1999.90;999.90;;;;;;;;;;5090916;28;20520;-52
2023/01/02 03:45:11;;;;;;;1999.90;999.90;;;;;;;;;;5091062;28;20057;-49
2023/01/02 03:47:55;;;;;;;1999.90;999.90;;;;;;;;;;5089113;28;20088;-47
2023/01/02 03:50:24;;;;;;;1999.90;999.90;;;;;;;;;;5090786;28;20117;-49
2023/01/02 03:52:49;;;;;;;1999.90;999.90;;;;;;;;;;5090768;28;20068;-48
2023/01/02 03:55:15;;;;;;;1999.90;999.90;;;;;;;;;;5090831;28;20433;-49
2023/01/02 03:57:46;;;;;;;1999.90;999.90;;;;;;;;;;5090868;28;20210;-48
2023/01/02 04:00:14;;;;;;;1999.90;999.90;;;;;;;;;;5090809;28;20126;-49
2023/01/02 04:02:39;;;;;;;1999.90;999.90;;;;;;;;;;5090780;28;20080;-48
2023/01/02 04:05:17;;;;;;;1999.90;999.90;;;;;;;;;;5090713;28;20427;-48
2023/01/02 04:07:51;;;;;;;1999.90;999.90;;;;;;;;;;5091000;28;20106;-50
2023/01/02 04:10:17;;;;;;;1999.90;999.90;;;;;;;;;;5089997;28;20078;-50
2023/01/02 04:12:44;;;;;;;1999.90;999.90;;;;;;;;;;5090496;28;20077;-50
2023/01/02 04:15:11;;;;;;;1999.90;999.90;;;;;;;;;;5089880;28;20429;-47
2023/01/02 04:17:39;;;;;;;1999.90;999.90;;;;;;;;;;5090684;28;20142;-47
2023/01/02 04:20:07;;;;;;;1999.90;999.90;;;;;;;;;;5090275;28;20061;-48
2023/01/02 04:22:40;;;;;;;1999.90;999.90;;;;;;;;;;5090618;28;20220;-47
2023/01/02 04:25:13;;;;;;;1999.90;999.90;;;;;;;;;;5090630;28;20522;-48
2023/01/02 04:27:59;;;;;;;1999.90;999.90;;;;;;;;;;5090669;28;20096;-48
2023/01/02 04:30:29;;;;;;;1999.90;999.90;;;;;;;;;;5090252;28;20104;-48
2023/01/02 04:32:57;;;;;;;1999.90;999.90;;;;;;;;;;5090359;28;20174;-51
2023/01/02 04:35:23;;;;;;;1999.90;999.90;;;;;;;;;;5090390;28;20088;-48
2023/01/02 04:37:48;;;;;;;1999.90;999.90;;;;;;;;;;5090302;28;20081;-50
2023/01/02 04:40:28;;;;;;;1999.90;999.90;;;;;;;;;;5090530;28;20520;-48
2023/01/02 04:42:54;;;;;;;1999.90;999.90;;;;;;;;;;5090505;28;20071;-48
2023/01/02 04:45:19;;;;;;;1999.90;999.90;;;;;;;;;;5090334;28;20065;-49
2023/01/02 04:47:48;;;;;;;1999.90;999.90;;;;;;;;;;5090063;28;20092;-48
2023/01/02 04:50:14;;;;;;;1999.90;999.90;;;;;;;;;;5090394;28;20075;-48
2023/01/02 04:52:39;;;;;;;1999.90;999.90;;;;;;;;;;5090245;28;20600;-49
2023/01/02 04:55:07;;;;;;;1999.90;999.90;;;;;;;;;;5090145;28;20085;-48
2023/01/02 04:57:32;;;;;;;1999.90;999.90;;;;;;;;;;5090559;28;20447;-52
2023/01/02 04:59:57;;;;;;;1999.90;999.90;;;;;;;;;;5089935;28;20065;-49
2023/01/02 05:02:23;;;;;;;1999.90;999.90;;;;;;;;;;5091638;28;20084;-49
2023/01/02 05:04:48;;;;;;;1999.90;999.90;;;;;;;;;;5093855;28;20068;-49
2023/01/02 05:07:13;;;;;;;1999.90;999.90;;;;;;;;;;5093753;28;20130;-48
2023/01/02 05:09:39;;;;;;;1999.90;999.90;;;;;;;;;;5093605;28;20103;-48
2023/01/02 05:12:04;;;;;;;1999.90;999.90;;;;;;;;;;5094013;28;20475;-48
2023/01/02 05:14:30;;;;;;;1999.90;999.90;;;;;;;;;;5093656;28;20175;-48
2023/01/02 05:16:55;;;;;;;1999.90;999.90;;;;;;;;;;5093322;28;20100;-48
2023/01/02 05:19:20;;;;;;;1999.90;999.90;;;;;;;;;;5093948;28;20061;-48
2023/01/02 05:24:29;;;;;;;1999.90;999.90;;;;;;;;;;5094103;28;20160;-48
2023/01/02 05:26:55;;;;;;;1999.90;999.90;;;;;;;;;;5093326;28;20159;-52
2023/01/02 05:29:20;;;;;;;1999.90;999.90;;;;;;;;;;5093584;28;20536;-48
2023/01/02 05:31:45;;;;;;;1999.90;999.90;;;;;;;;;;5093149;28;20115;-48
2023/01/02 05:34:14;;;;;;;1999.90;999.90;;;;;;;;;;5093483;28;20084;-51
2023/01/02 05:36:39;;;;;;;1999.90;999.90;;;;;;;;;;5093286;28;20437;-52
2023/01/02 05:39:12;;;;;;;1999.90;999.90;;;;;;;;;;5093182;28;20069;-49
2023/01/02 05:41:40;;;;;;;1999.90;999.90;;;;;;;;;;5093300;28;20144;-52
2023/01/02 05:44:09;;;;;;;1999.90;999.90;;;;;;;;;;5093589;28;20151;-50
2023/01/02 05:46:35;;;;;;;1999.90;999.90;;;;;;;;;;5092887;28;20088;-49
2023/01/02 05:49:04;;;;;;;1999.90;999.90;;;;;;;;;;5093065;28;20168;-48
2023/01/02 05:51:29;;;;;;;1999.90;999.90;;;;;;;;;;5093208;28;20072;-50
2023/01/02 05:53:55;;;;;;;1999.90;999.90;;;;;;;;;;5093093;28;20093;-51
2023/01/02 05:56:20;;;;;;;1999.90;999.90;;;;;;;;;;5092963;28;20079;-52
2023/01/02 05:58:46;;;;;;;1999.90;999.90;;;;;;;;;;5093065;28;20071;-52
2023/01/02 06:01:13;;;;;;;1999.90;999.90;;;;;;;;;;5092505;28;20107;-51
2023/01/02 06:03:38;;;;;;;1999.90;999.90;;;;;;;;;;5092773;28;20537;-50
2023/01/02 06:06:05;;;;;;;1999.90;999.90;;;;;;;;;;5092823;28;20065;-50
2023/01/02 06:08:30;;;;;;;1999.90;999.90;;;;;;;;;;5092523;28;20072;-51
2023/01/02 06:10:55;;;;;;;1999.90;999.90;;;;;;;;;;5092696;28;20151;-48
2023/01/02 06:13:21;;;;;;;1999.90;999.90;;;;;;;;;;5092708;28;20076;-49
2023/01/02 06:15:46;;;;;;;1999.90;999.90;;;;;;;;;;5092528;28;20075;-51
2023/01/02 06:18:11;;;;;;;1999.90;999.90;;;;;;;;;;5092718;28;20143;-49
2023/01/02 06:20:37;;;;;;;1999.90;999.90;;;;;;;;;;5092381;28;20072;-50
2023/01/02 06:23:02;;;;;;;1999.90;999.90;;;;;;;;;;5092626;28;20071;-51
2023/01/02 06:25:27;;;;;;;1999.90;999.90;;;;;;;;;;5092415;28;20099;-49
2023/01/02 06:27:53;;;;;;;1999.90;999.90;;;;;;;;;;5092535;28;20088;-48
2023/01/02 06:30:18;;;;;;;1999.90;999.90;;;;;;;;;;5092254;28;20077;-50
2023/01/02 06:32:43;;;;;;;1999.90;999.90;;;;;;;;;;5092177;28;20130;-51
2023/01/02 06:35:09;;;;;;;1999.90;999.90;;;;;;;;;;5092474;28;20077;-48
2023/01/02 06:37:34;;;;;;;1999.90;999.90;;;;;;;;;;5092074;28;20087;-51
2023/01/02 06:39:59;;;;;;;1999.90;999.90;;;;;;;;;;5092553;28;20151;-50
2023/01/02 06:42:25;;;;;;;1999.90;999.90;;;;;;;;;;5091895;28;20152;-50
2023/01/02 06:44:50;;;;;;;1999.90;999.90;;;;;;;;;;5092183;28;20083;-50
2023/01/02 06:47:15;;;;;;;1999.90;999.90;;;;;;;;;;5091070;28;20084;-51
2023/01/02 06:49:41;;;;;;;1999.90;999.90;;;;;;;;;;5092264;28;20092;-50
2023/01/02 06:52:06;;;;;;;1999.90;999.90;;;;;;;;;;5090676;28;20144;-50
2023/01/02 06:54:32;;;;;;;1999.90;999.90;;;;;;;;;;5092008;28;20088;-52
2023/01/02 06:56:58;;;;;;;1999.90;999.90;;;;;;;;;;5091573;28;20580;-50
2023/01/02 06:59:23;;;;;;;1999.90;999.90;;;;;;;;;;5092129;28;20096;-48
2023/01/02 07:01:48;;;;;;;1999.90;999.90;;;;;;;;;;5091341;28;20111;-51
2023/01/02 07:04:16;;;;;;;1999.90;999.90;;;;;;;;;;5092026;28;20410;-51
2023/01/02 07:06:42;;;;;;;1999.90;999.90;;;;;;;;;;5090244;28;20456;-49
2023/01/02 07:09:07;;;;;;;1999.90;999.90;;;;;;;;;;5088764;28;20080;-50
2023/01/02 07:11:34;;;;;;;1999.90;999.90;;;;;;;;;;5088757;28;20080;-49
2023/01/02 07:13:59;;;;;;;1999.90;999.90;;;;;;;;;;5091040;28;20089;-49
2023/01/02 07:16:25;;;;;;;1999.90;999.90;;;;;;;;;;5091845;28;20092;-54
2023/01/02 07:18:51;;;;;;;1999.90;999.90;;;;;;;;;;5087168;28;20114;-55
2023/01/02 07:21:17;;;;;;;1999.90;999.90;;;;;;;;;;5090623;28;20079;-55
2023/01/02 07:23:42;;;;;;;1999.90;999.90;;;;;;;;;;5090907;28;20492;-55
2023/01/02 07:26:07;;;;;;;1999.90;999.90;;;;;;;;;;5090903;28;20068;-54
2023/01/02 07:28:33;;;;;;;1999.90;999.90;;;;;;;;;;5091226;28;20060;-53
2023/01/02 07:31:00;;;;;;;1999.90;999.90;;;;;;;;;;5090506;28;20076;-56
2023/01/02 07:33:26;;;;;;;1999.90;999.90;;;;;;;;;;5088727;28;20068;-56
2023/01/02 07:35:56;;;;;;;1999.90;999.90;;;;;;;;;;5081458;28;20079;-53
2023/01/02 07:38:21;;;;;;;1999.90;999.90;;;;;;;;;;5090956;28;20122;-54
2023/01/02 07:40:46;;;;;;;1999.90;999.90;;;;;;;;;;5079186;28;20080;-54
2023/01/02 07:43:12;;;;;;;1999.90;999.90;;;;;;;;;;5090112;28;20065;-54
2023/01/02 07:45:37;;;;;;;1999.90;999.90;;;;;;;;;;5088511;28;20073;-54
2023/01/02 07:48:02;;;;;;;1999.90;999.90;;;;;;;;;;5088987;28;20069;-54
2023/01/02 07:50:28;;;;;;;1999.90;999.90;;;;;;;;;;5089245;28;20160;-53
2023/01/02 07:52:53;;;;;;;1999.90;999.90;;;;;;;;;;5090250;28;20199;-56
2023/01/02 07:55:18;;;;;;;1999.90;999.90;;;;;;;;;;5090785;28;20100;-55
2023/01/02 07:57:49;;;;;;;1999.90;999.90;;;;;;;;;;5090633;28;20141;-54
2023/01/02 08:00:16;;;;;;;1999.90;999.90;;;;;;;;;;5090867;28;20487;-56
2023/01/02 08:02:41;;;;;;;1999.90;999.90;;;;;;;;;;5090839;28;20084;-55
2023/01/02 08:05:07;;;;;;;1999.90;999.90;;;;;;;;;;5090731;28;20073;-54
2023/01/02 08:07:32;;;;;;;1999.90;999.90;;;;;;;;;;5081944;28;20533;-55
2023/01/02 08:09:57;;;;;;;1999.90;999.90;;;;;;;;;;5090726;28;20097;-56
2023/01/02 08:12:22;;;;;;;1999.90;999.90;;;;;;;;;;5090275;28;20068;-56
2023/01/02 08:14:48;;;;;;;1999.90;999.90;;;;;;;;;;5089814;28;20130;-54
2023/01/02 08:17:13;;;;;;;1999.90;999.90;;;;;;;;;;5090610;28;20088;-51
2023/01/02 08:19:38;;;;;;;1999.90;999.90;;;;;;;;;;5090609;28;20536;-52
2023/01/02 08:22:04;;;;;;;1999.90;999.90;;;;;;;;;;5088694;28;20069;-55
2023/01/02 08:24:29;;;;;;;1999.90;999.90;;;;;;;;;;5088191;28;20088;-54
2023/01/02 08:26:54;;;;;;;1999.90;999.90;;;;;;;;;;5085876;28;20088;-52
2023/01/02 08:29:20;;;;;;;1999.90;999.90;;;;;;;;;;5079855;28;20076;-53
2023/01/02 08:31:45;;;;;;;1999.90;999.90;;;;;;;;;;5058187;28;20111;-51
2023/01/02 08:34:13;;;;;;;1999.90;999.90;;;;;;;;;;5059609;28;20531;-55
2023/01/02 08:36:38;;;;;;;1999.90;999.90;;;;;;;;;;5068872;28;20130;-56
2023/01/02 08:39:04;;;;;;;1999.90;999.90;;;;;;;;;;5091157;28;20440;-43
2023/01/02 08:41:30;;;;;;;1999.90;999.90;;;;;;;;;;5093671;28;20115;-46
2023/01/02 08:43:55;;;;;;;1999.90;999.90;;;;;;;;;;5093583;28;20521;-43
2023/01/02 08:46:20;;;;;;;1999.90;999.90;;;;;;;;;;5093604;28;20123;-43
2023/01/02 08:48:46;;;;;;;1999.90;999.90;;;;;;;;;;5093819;28;20069;-44
2023/01/02 08:51:11;;;;;;;1999.90;999.90;;;;;;;;;;5089723;28;20072;-46
2023/01/02 08:53:37;;;;;;;1999.90;999.90;;;;;;;;;;5094069;28;20191;-45
2023/01/02 08:56:17;;;;;;;1999.90;999.90;;;;;;;;;;5093419;28;20063;-43
2023/01/02 08:58:42;;;;;;;1999.90;999.90;;;;;;;;;;5093509;28;20071;-46
2023/01/02 09:01:08;;;;;;;1999.90;999.90;;;;;;;;;;5093221;28;20049;-44
2023/01/02 09:03:33;;;;;;;1999.90;999.90;;;;;;;;;;5092743;28;20050;-44
2023/01/02 09:05:58;;;;;;;1999.90;999.90;;;;;;;;;;5093035;28;20126;-44
2023/01/02 09:08:24;;;;;;;1999.90;999.90;;;;;;;;;;5092910;28;20108;-47
2023/01/02 09:10:49;;;;;;;1999.90;999.90;;;;;;;;;;5092917;28;20072;-45
2023/01/02 09:13:14;;;;;;;1999.90;999.90;;;;;;;;;;5092955;28;20126;-41
2023/01/02 09:15:43;;;;;;;1999.90;999.90;;;;;;;;;;5093183;28;20073;-43
2023/01/02 09:18:08;;;;;;;1999.90;999.90;;;;;;;;;;5093202;28;20504;-44
2023/01/02 09:20:38;;;;;;;1999.90;999.90;;;;;;;;;;5093222;28;20075;-45
2023/01/02 09:23:03;;;;;;;;;;;;;;;;;;5093603;28;20106;-42
2023/01/02 09:25:28;;;;;;;1999.90;999.90;;;;;;;;;;5092949;28;20490;-44
2023/01/02 09:27:54;;;;;;;1999.90;999.90;;;;;;;;;;5092791;28;20091;-44
2023/01/02 09:30:19;;;;;;;1999.90;999.90;;;;;;;;;;5092602;28;20141;-44
2023/01/02 09:32:44;;;;;;;1999.90;999.90;;;;;;;;;;5092687;28;20052;-43
2023/01/02 09:35:10;;;;;;;1999.90;999.90;;;;;;;;;;5092681;28;20170;-44
2023/01/02 09:37:35;;;;;;;1999.90;999.90;;;;;;;;;;5092697;28;20141;-46
2023/01/02 09:40:00;;;;;;;1999.90;999.90;;;;;;;;;;5092225;28;20057;-42
2023/01/02 09:42:26;;;;;;;1999.90;999.90;;;;;;;;;;5092537;28;20061;-43
2023/01/02 09:44:54;;;;;;;1999.90;999.90;;;;;;;;;;5092659;28;20079;-43
2023/01/02 09:47:20;;;;;;;1999.90;999.90;;;;;;;;;;5091741;28;20088;-42
2023/01/02 09:49:51;;;;;;;1999.90;999.90;;;;;;;;;;5092683;28;20081;-44
2023/01/02 09:52:16;;;;;;;1999.90;999.90;;;;;;;;;;5089120;28;20081;-46
2023/01/02 09:54:42;;;;;;;1999.90;999.90;;;;;;;;;;5092461;28;20085;-47
2023/01/02 09:57:25;;;;;;;1999.90;999.90;;;;;;;;;;5092235;28;20140;-44
2023/01/02 10:00:09;;;;;;;1999.90;999.90;;;;;;;;;;5091782;28;20065;-47
2023/01/02 10:02:51;;;;;;;1999.90;999.90;;;;;;;;;;5090976;28;20179;-44
2023/01/02 10:05:22;;;;;;;1999.90;999.90;;;;;;;;;;5092519;28;20413;-46
2023/01/02 10:07:54;;;;;;;1999.90;999.90;;;;;;;;;;5091983;28;20486;-45
2023/01/02 10:10:29;;;;;;;1999.90;999.90;;;;;;;;;;5092122;28;20065;-43
2023/01/02 10:13:03;;;;;;;1999.90;999.90;;;;;;;;;;5091754;28;20133;-47
2023/01/02 10:15:29;;;;;;;1999.90;999.90;;;;;;;;;;5092303;28;20082;-46
2023/01/02 10:17:57;;;;;;;1999.90;999.90;;;;;;;;;;5092012;28;20449;-44
2023/01/02 10:20:26;;;;;;;1999.90;999.90;;;;;;;;;;5092193;28;20068;-45
2023/01/02 10:23:15;;;;;;;1999.90;999.90;;;;;;;;;;5091845;28;20269;-47
2023/01/02 10:25:50;;;;;;;1999.90;999.90;;;;;;;;;;5083224;28;20078;-43
2023/01/02 10:28:24;;;;;;;1999.90;999.90;;;;;;;;;;5091904;28;20216;-50
2023/01/02 10:31:11;;;;;;;1999.90;999.90;;;;;;;;;;5091302;28;20056;-50
2023/01/02 10:33:54;;;;;;;1999.90;999.90;;;;;;;;;;5091781;28;20084;-47
2023/01/02 10:36:25;;;;;;;1999.90;999.90;;;;;;;;;;5091428;28;20088;-43
2023/01/02 10:38:51;;;;;;;1999.90;999.90;;;;;;;;;;5091570;28;20521;-44
2023/01/02 10:41:17;;;;;;;1999.90;999.90;;;;;;;;;;5091495;28;20073;-42
2023/01/02 10:43:43;;;;;;;1999.90;999.90;;;;;;;;;;5091647;28;20548;-47
2023/01/02 10:46:09;;;;;;;1999.90;999.90;;;;;;;;;;5091274;28;20140;-42
2023/01/02 10:48:36;;;;;;;1999.90;999.90;;;;;;;;;;5091344;28;20572;-45
2023/01/02 10:51:04;;;;;;;1999.90;999.90;;;;;;;;;;5088510;28;20073;-41
2023/01/02 10:53:35;;;;;;;1999.90;999.90;;;;;;;;;;5091439;28;20073;-46
2023/01/02 10:56:02;;;;;;;1999.90;999.90;;;;;;;;;;5091110;28;20086;-40
2023/01/02 10:58:28;;;;;;;1999.90;999.90;;;;;;;;;;5090507;28;20065;-41
2023/01/02 11:01:04;;;;;;;1999.90;999.90;;;;;;;;;;5091244;28;20525;-43
2023/01/02 11:03:29;;;;;;;1999.90;999.90;;;;;;;;;;5048478;22;20203;-67
2023/01/02 11:05:56;;;;;;;1999.90;999.90;;;;;;;;;;5038436;28;20115;-68
2023/01/02 11:08:22;;;;;;;1999.90;999.90;;;;;;;;;;5041821;28;20074;-66
2023/01/02 11:10:49;;;;;;;1999.90;999.90;;;;;;;;;;5037830;28;20074;-67
2023/01/02 11:13:15;;;;;;;1999.90;999.90;;;;;;;;;;5043560;23;20511;-50
2023/01/02 11:15:57;;;;;;;1999.90;999.90;;;;;;;;;;5015634;28;20089;-46
2023/01/02 11:18:27;;;;;;;1999.90;999.90;;;;;;;;;;4985743;28;20303;-46
2023/01/02 11:21:02;;;;;;;1999.90;999.90;;;;;;;;;;4991205;28;20092;-46
2023/01/02 11:23:29;;;;;;;1999.90;999.90;;;;;;;;;;4990294;28;20086;-49
2023/01/02 11:25:54;;;;;;;1999.90;999.90;;;;;;;;;;4993080;28;20115;-49
2023/01/02 11:28:27;;;;;;;1999.90;999.90;;;;;;;;;;4985000;28;20264;-48
2023/01/02 11:31:13;;;;;;;1999.90;999.90;;;;;;;;;;4982421;28;20081;-45
2023/01/02 11:33:38;;;;;;;1999.90;999.90;;;;;;;;;;4995580;28;20064;-47
2023/01/02 11:36:03;;;;;;;1999.90;999.90;;;;;;;;;;4996558;28;20074;-45
2023/01/02 11:38:48;;;;;;;1999.90;999.90;;;;;;;;;;4992327;28;20130;-46
2023/01/02 11:44:25;;;;;;;1999.90;999.90;;;;;;;;;;4954369;28;21276;-47
2023/01/02 11:46:51;;;;;;;1999.90;999.90;;;;;;;;;;4987533;28;20103;-49
2023/01/02 11:49:19;;;;;;;1999.90;999.90;;;;;;;;;;4988061;28;20418;-44
2023/01/02 11:51:48;;;;;;;1999.90;999.90;;;;;;;;;;4997874;28;20070;-48
2023/01/02 11:54:18;;;;;;;1999.90;999.90;;;;;;;;;;4987881;28;20501;-49
2023/01/02 11:56:44;;;;;;;1999.90;999.90;;;;;;;;;;4982317;28;20098;-48
2023/01/02 11:59:16;;;;;;;1999.90;999.90;;;;;;;;;;4996953;28;20120;-48
2023/01/02 12:01:47;;;;;;;1999.90;999.90;;;;;;;;;;4993922;28;20078;-47
2023/01/02 12:04:13;;;;;;;1999.90;999.90;;;;;;;;;;4998391;28;20093;-47
2023/01/02 12:06:46;;;;;;;1999.90;999.90;;;;;;;;;;4994140;28;20097;-48
2023/01/02 12:09:12;;;;;;;1999.90;999.90;;;;;;;;;;5000806;28;20707;-49
2023/01/02 12:11:50;;;;;;;1999.90;999.90;;;;;;;;;;4992066;28;20568;-55
2023/01/02 12:14:16;;;;;;;1999.90;999.90;;;;;;;;;;4991141;28;20104;-54
2023/01/02 12:17:08;;;;;;;1999.90;999.90;;;;;;;;;;4989213;28;21697;-57
2023/01/02 12:19:51;;;;;;;1999.90;999.90;;;;;;;;;;4980810;28;26321;-60
2023/01/02 12:22:23;;;;;;;1999.90;999.90;;;;;;;;;;4999356;28;20070;-60
2023/01/02 12:25:00;;;;;;;1999.90;999.90;;;;;;;;;;4978835;28;20082;-50
2023/01/02 12:27:26;;;;;;;1999.90;999.90;;;;;;;;;;4991436;28;20151;-58
2023/01/02 12:30:10;;;;;;;1999.90;999.90;;;;;;;;;;4988439;28;20517;-60
2023/01/02 12:32:36;;;;;;;1999.90;999.90;;;;;;;;;;5017871;28;20066;-51
2023/01/02 12:35:13;;;;;;;1999.90;999.90;;;;;;;;;;5031123;28;20078;-48
2023/01/02 12:37:51;;;;;;;1999.90;999.90;;;;;;;;;;5011425;28;20085;-59
2023/01/02 12:40:35;;;;;;;1999.90;999.90;;;;;;;;;;5011514;28;20069;-52
2023/01/02 12:43:09;;;;;;;1999.90;999.90;;;;;;;;;;4991230;28;20073;-59
2023/01/02 12:45:38;;;;;;;1999.90;999.90;;;;;;;;;;4963067;28;20223;-57
2023/01/02 12:48:26;;;;;;;1999.90;999.90;;;;;;;;;;4985093;28;20098;-52
2023/01/02 12:51:00;;;;;;;1999.90;999.90;;;;;;;;;;4970263;28;22460;-52
2023/01/02 12:53:45;;;;;;;1999.90;999.90;;;;;;;;;;5001794;28;20106;-55
2023/01/02 12:56:24;;;;;;;1999.90;999.90;;;;;;;;;;4978676;28;20165;-48
2023/01/02 12:59:02;;;;;;;1999.90;999.90;;;;;;;;;;4989791;28;20355;-54
2023/01/02 13:01:27;;;;;;;1999.90;999.90;;;;;;;;;;5016646;28;20080;-52
2023/01/02 13:04:05;;;;;;;1999.90;999.90;;;;;;;;;;5032281;28;20077;-52
2023/01/02 13:06:36;;;;;;;1999.90;999.90;;;;;;;;;;5026115;28;20746;-48
2023/01/02 13:09:04;;;;;;;1999.90;999.90;;;;;;;;;;5022282;28;20554;-54
2023/01/02 13:11:33;;;;;;;1999.90;999.90;;;;;;;;;;5024776;28;20060;-50
2023/01/02 13:14:00;;;;;;;1999.90;999.90;;;;;;;;;;5023743;28;20541;-53
2023/01/02 13:16:26;;;;;;;1999.90;999.90;;;;;;;;;;5024013;28;20022;-49
2023/01/02 13:18:54;;;;;;;1999.90;999.90;;;;;;;;;;5021866;28;20286;-49
2023/01/02 13:21:34;;;;;;;1999.90;999.90;;;;;;;;;;5016140;28;20021;-54
2023/01/02 13:24:00;;;;;;;1999.90;999.90;;;;;;;;;;5021361;28;20030;-50
2023/01/02 13:26:27;;;;;;;1999.90;999.90;;;;;;;;;;5023989;28;23108;-54
2023/01/02 13:29:22;;;;;;;1999.90;999.90;;;;;;;;;;5012146;28;20561;-55
2023/01/02 13:31:54;;;;;;;1999.90;999.90;;;;;;;;;;4989567;28;20041;-51
2023/01/02 13:34:24;;;;;;;1999.90;999.90;;;;;;;;;;5026866;28;20060;-58
2023/01/02 13:36:56;;;;;;;1999.90;999.90;;;;;;;;;;5027121;28;20111;-59
2023/01/02 13:39:22;;;;;;;1999.90;999.90;;;;;;;;;;5030344;28;20100;-50
2023/01/02 13:44:41;;;;;;;1999.90;999.90;;;;;;;;;;5031399;28;20401;-50
2023/01/02 13:47:09;;;;;;;1999.90;999.90;;;;;;;;;;5033905;28;20455;-51
2023/01/02 13:49:34;;;;;;;1999.90;999.90;;;;;;;;;;5031374;28;20064;-50
2023/01/02 13:52:00;;;;;;;1999.90;999.90;;;;;;;;;;5031782;28;20057;-55
2023/01/02 13:54:33;;;;;;;1999.90;999.90;;;;;;;;;;5031673;28;20096;-50
2023/01/02 13:57:14;;;;;;;1999.90;999.90;;;;;;;;;;5030430;28;20060;-54
2023/01/02 13:59:58;;;;;;;1999.90;999.90;;;;;;;;;;5027639;28;20056;-50